Time;durP1;ratioP1;P1;durP2;ratioP2;P2;SDS_P1;SDS_P2;PMS_P1;PMS_P2;Temp;Humidity;BMP_temperature;BMP_pressure;BME280_temperature;BME280_humidity;BME280_pressure;Samples;Min_cycle;Max_cycle;Signal;HPM_P1;HPM_P2
2023/08/24 00:00:52;;;;;;;5.77;3.67;;;18.80;99.90;;;;;;5074027;28;20268;-73
2023/08/24 00:03:18;;;;;;;10.07;4.23;;;18.80;99.90;;;;;;5073909;28;20189;-73
2023/08/24 00:05:44;;;;;;;4.50;3.50;;;18.70;99.90;;;;;;5074237;28;20663;-73
2023/08/24 00:08:10;;;;;;;5.13;3.47;;;18.70;99.90;;;;;;5074058;28;20528;-73
2023/08/24 00:10:37;;;;;;;3.73;3.33;;;18.70;99.90;;;;;;5072661;28;20178;-73
2023/08/24 00:13:03;;;;;;;4.07;3.67;;;18.80;99.90;;;;;;5073260;28;20243;-73
2023/08/24 00:15:29;;;;;;;4.10;3.70;;;18.80;99.90;;;;;;5073877;28;20228;-73
2023/08/24 00:17:55;;;;;;;4.50;3.90;;;18.70;99.90;;;;;;5073906;28;20253;-73
2023/08/24 00:20:21;;;;;;;4.23;3.20;;;18.70;99.90;;;;;;5068218;28;20316;-73
2023/08/24 00:22:47;;;;;;;5.13;3.53;;;18.70;99.90;;;;;;5073603;28;20189;-73
2023/08/24 00:25:12;;;;;;;4.23;3.83;;;18.70;99.90;;;;;;5073749;28;20792;-74
2023/08/24 00:27:38;;;;;;;4.78;3.50;;;18.60;99.90;;;;;;5073461;28;20181;-74
2023/08/24 00:30:09;;;;;;;6.00;3.50;;;18.60;99.90;;;;;;5074075;28;20201;-73
2023/08/24 00:32:35;;;;;;;3.70;3.40;;;18.60;99.90;;;;;;5072213;28;20546;-74
2023/08/24 00:35:06;;;;;;;5.43;4.03;;;18.70;99.90;;;;;;5073547;28;20190;-73
2023/08/24 00:37:32;;;;;;;4.33;3.37;;;18.70;99.90;;;;;;5073532;28;20175;-73
2023/08/24 00:40:03;;;;;;;3.93;3.53;;;18.70;99.90;;;;;;5072202;28;20220;-73
2023/08/24 00:42:28;;;;;;;4.77;3.90;;;18.70;99.90;;;;;;5071395;28;20189;-73
2023/08/24 00:44:54;;;;;;;3.87;3.57;;;18.70;99.90;;;;;;5072375;28;20717;-74
2023/08/24 00:47:20;;;;;;;4.00;3.70;;;18.70;99.90;;;;;;5073289;28;20176;-73
2023/08/24 00:49:45;;;;;;;4.40;3.87;;;18.70;99.90;;;;;;5073383;28;20532;-74
2023/08/24 00:52:12;;;;;;;7.80;3.73;;;18.70;99.90;;;;;;5071715;28;20170;-74
2023/08/24 00:54:39;;;;;;;4.33;3.70;;;18.70;99.90;;;;;;5073297;28;20273;-73
2023/08/24 00:57:06;;;;;;;4.60;3.77;;;18.70;99.90;;;;;;5073194;28;20265;-73
2023/08/24 00:59:33;;;;;;;6.67;3.50;;;18.70;99.90;;;;;;5057419;28;20541;-73
2023/08/24 01:01:59;;;;;;;7.17;3.90;;;18.70;99.90;;;;;;5053134;28;20253;-73
2023/08/24 01:04:24;;;;;;;7.27;3.67;;;18.60;99.90;;;;;;5051666;28;20825;-73
2023/08/24 01:06:52;;;;;;;6.22;3.78;;;18.70;99.90;;;;;;5057836;28;20170;-73
2023/08/24 01:09:18;;;;;;;4.17;3.70;;;18.60;99.90;;;;;;5072467;28;20189;-73
2023/08/24 01:12:02;;;;;;;3.97;3.57;;;18.60;99.90;;;;;;5072744;28;20246;-73
2023/08/24 01:14:39;;;;;;;4.00;3.60;;;18.60;99.90;;;;;;5052968;28;20220;-74
2023/08/24 01:17:08;;;;;;;4.33;3.57;;;18.50;99.90;;;;;;5052845;28;20166;-73
2023/08/24 01:19:41;;;;;;;5.70;4.23;;;18.50;99.90;;;;;;5052743;28;20202;-73
2023/08/24 01:22:26;;;;;;;4.07;3.67;;;18.60;99.90;;;;;;5052279;28;20190;-73
2023/08/24 01:25:10;;;;;;;6.13;3.77;;;18.60;99.90;;;;;;5041202;28;20257;-73
2023/08/24 01:27:36;;;;;;;5.37;3.73;;;18.50;99.90;;;;;;5051272;28;20190;-73
2023/08/24 01:30:07;;;;;;;4.43;4.03;;;18.60;99.90;;;;;;5068062;28;20604;-73
2023/08/24 01:32:34;;;;;;;4.60;4.00;;;18.50;99.90;;;;;;5072388;28;20167;-74
2023/08/24 01:35:06;;;;;;;4.77;4.13;;;18.50;99.90;;;;;;5071057;28;20194;-74
2023/08/24 01:37:33;;;;;;;5.00;3.87;;;18.50;99.90;;;;;;5072491;28;20163;-74
2023/08/24 01:40:09;;;;;;;4.33;3.83;;;18.50;99.90;;;;;;5072431;28;20181;-73
2023/08/24 01:42:39;;;;;;;4.10;3.70;;;18.50;99.90;;;;;;5071994;28;20664;-73
2023/08/24 01:45:08;;;;;;;4.60;4.03;;;18.40;99.90;;;;;;5070384;28;20210;-73
2023/08/24 01:47:35;;;;;;;4.93;3.80;;;18.40;99.90;;;;;;5072143;28;20170;-73
2023/08/24 01:50:02;;;;;;;4.37;3.97;;;18.40;99.90;;;;;;5072162;28;20185;-73
2023/08/24 01:52:28;;;;;;;4.90;3.80;;;18.40;99.90;;;;;;5070444;28;20178;-73
2023/08/24 01:54:53;;;;;;;4.20;3.63;;;18.30;99.90;;;;;;5071998;28;20190;-73
2023/08/24 01:57:19;;;;;;;4.23;3.93;;;18.40;99.90;;;;;;5071685;28;20181;-74
2023/08/24 01:59:44;;;;;;;4.03;3.73;;;18.30;99.90;;;;;;5061754;28;20193;-74
2023/08/24 02:02:10;;;;;;;4.47;3.80;;;18.30;99.90;;;;;;5070892;28;20643;-73
2023/08/24 02:04:36;;;;;;;4.70;4.20;;;18.30;99.90;;;;;;5071869;28;20241;-73
2023/08/24 02:07:02;;;;;;;4.70;4.20;;;18.20;99.90;;;;;;5071858;28;20182;-73
2023/08/24 02:09:28;;;;;;;4.77;3.90;;;18.20;99.90;;;;;;5070551;28;20170;-73
2023/08/24 02:11:53;;;;;;;4.93;3.90;;;18.20;99.90;;;;;;5071811;28;20162;-73
2023/08/24 02:14:19;;;;;;;4.33;3.80;;;18.20;99.90;;;;;;5068243;28;20205;-72
2023/08/24 02:16:45;;;;;;;6.97;4.70;;;18.20;99.90;;;;;;5052171;28;20500;-73
2023/08/24 02:19:11;;;;;;;5.20;4.70;;;18.20;99.90;;;;;;5051865;28;20179;-73
2023/08/24 02:21:36;;;;;;;4.07;3.73;;;18.20;99.90;;;;;;5051634;28;20249;-74
2023/08/24 02:24:03;;;;;;;8.67;4.27;;;18.10;99.90;;;;;;5051523;28;20251;-73
2023/08/24 02:26:29;;;;;;;4.27;3.97;;;18.10;99.90;;;;;;5050586;28;20548;-73
2023/08/24 02:28:54;;;;;;;4.60;4.13;;;18.10;99.90;;;;;;5051859;28;20178;-73
2023/08/24 02:31:20;;;;;;;7.53;4.37;;;18.10;99.90;;;;;;5061026;28;20664;-73
2023/08/24 02:33:46;;;;;;;4.73;4.27;;;18.20;99.90;;;;;;5071560;28;20189;-73
2023/08/24 02:36:11;;;;;;;5.13;4.33;;;18.20;99.90;;;;;;5071855;28;20166;-73
2023/08/24 02:38:37;;;;;;;5.13;4.67;;;18.20;99.90;;;;;;5071735;28;20805;-73
2023/08/24 02:41:07;;;;;;;5.23;4.30;;;18.20;99.90;;;;;;5071619;28;20220;-73
2023/08/24 02:43:34;;;;;;;4.63;4.23;;;18.30;99.90;;;;;;5071158;28;20181;-73
2023/08/24 02:46:03;;;;;;;5.40;4.87;;;18.30;99.90;;;;;;5071732;28;20174;-73
2023/08/24 02:48:30;;;;;;;4.83;4.37;;;18.30;99.90;;;;;;5069786;28;20174;-74
2023/08/24 02:50:58;;;;;;;5.07;4.43;;;18.40;99.90;;;;;;5071580;28;20177;-73
2023/08/24 02:53:24;;;;;;;6.57;4.60;;;18.40;99.90;;;;;;5070869;28;20247;-73
2023/08/24 02:55:49;;;;;;;5.17;4.67;;;18.50;99.90;;;;;;5070302;28;20651;-73
2023/08/24 02:58:15;;;;;;;4.90;3.80;;;18.50;99.90;;;;;;5070178;28;20555;-74
2023/08/24 03:00:40;;;;;;;4.50;4.10;;;18.50;99.90;;;;;;5071379;28;20178;-73
2023/08/24 03:03:06;;;;;;;6.70;4.07;;;18.60;99.90;;;;;;5070994;28;20205;-73
2023/08/24 03:05:32;;;;;;;8.47;4.00;;;18.50;99.90;;;;;;5069733;28;20245;-73
2023/08/24 03:07:58;;;;;;;4.83;4.20;;;18.60;99.90;;;;;;5070866;28;20181;-73
2023/08/24 03:10:24;;;;;;;5.43;3.85;;;18.60;99.90;;;;;;5071295;28;20175;-73
2023/08/24 03:12:50;;;;;;;6.77;3.83;;;18.80;99.90;;;;;;5071103;28;20548;-73
2023/08/24 03:15:16;;;;;;;6.03;4.13;;;18.80;99.90;;;;;;5069803;28;20198;-74
2023/08/24 03:17:42;;;;;;;4.07;3.70;;;18.90;99.90;;;;;;5071536;28;20603;-73
2023/08/24 03:20:08;;;;;;;8.20;4.47;;;18.90;99.90;;;;;;5071111;28;20180;-73
2023/08/24 03:22:34;;;;;;;4.70;4.30;;;19.00;99.90;;;;;;5051334;28;20234;-73
2023/08/24 03:25:00;;;;;;;5.53;4.43;;;19.00;99.90;;;;;;5050881;28;20210;-73
2023/08/24 03:27:25;;;;;;;4.47;4.07;;;19.00;99.90;;;;;;5050917;28;20166;-73
2023/08/24 03:29:53;;;;;;;7.57;4.72;;;19.10;99.90;;;;;;5051162;28;20167;-73
2023/08/24 03:32:19;;;;;;;9.20;4.83;;;19.10;99.90;;;;;;5049246;28;20530;-73
2023/08/24 03:34:44;;;;;;;7.60;4.57;;;19.20;99.90;;;;;;5051057;28;20252;-73
2023/08/24 03:37:10;;;;;;;6.57;5.17;;;19.20;99.90;;;;;;5053394;28;20182;-73
2023/08/24 03:39:39;;;;;;;5.80;4.47;;;19.30;99.90;;;;;;5070982;28;20244;-74
2023/08/24 03:42:05;;;;;;;8.13;4.82;;;19.30;99.90;;;;;;5070519;28;20190;-73
2023/08/24 03:44:31;;;;;;;6.80;5.18;;;19.20;99.90;;;;;;5070850;28;20214;-73
2023/08/24 03:46:56;;;;;;;7.40;4.93;;;19.20;99.90;;;;;;5071015;28;20639;-74
2023/08/24 03:49:22;;;;;;;5.20;4.70;;;19.20;99.90;;;;;;5059778;28;20175;-73
2023/08/24 03:51:48;;;;;;;7.57;4.95;;;19.20;99.90;;;;;;5050589;28;20273;-73
2023/08/24 03:54:14;;;;;;;7.80;4.88;;;19.10;99.90;;;;;;5060203;28;20206;-73
2023/08/24 03:56:40;;;;;;;5.57;4.72;;;19.10;99.90;;;;;;5069708;28;20728;-73
2023/08/24 03:59:05;;;;;;;5.53;5.03;;;19.10;99.90;;;;;;5070807;28;20242;-73
2023/08/24 04:01:31;;;;;;;8.23;4.87;;;19.10;99.90;;;;;;5070547;28;20170;-73
2023/08/24 04:03:57;;;;;;;6.65;5.00;;;19.20;99.90;;;;;;5070269;28;20271;-73
2023/08/24 04:06:23;;;;;;;5.35;4.38;;;19.20;99.90;;;;;;5070749;28;20624;-73
2023/08/24 04:08:49;;;;;;;8.43;5.15;;;19.20;99.90;;;;;;5070823;28;20536;-73
2023/08/24 04:11:15;;;;;;;6.00;5.40;;;19.20;99.90;;;;;;5068726;28;20182;-73
2023/08/24 04:13:40;;;;;;;7.27;5.47;;;19.30;99.90;;;;;;5070432;28;20186;-74
2023/08/24 04:16:06;;;;;;;9.60;4.97;;;19.30;99.90;;;;;;5070645;28;20257;-74
2023/08/24 04:18:32;;;;;;;8.60;5.47;;;19.30;99.90;;;;;;5070710;28;20178;-73
2023/08/24 04:20:57;;;;;;;11.35;5.47;;;19.30;99.90;;;;;;5072301;28;20170;-73
2023/08/24 04:23:27;;;;;;;8.57;5.15;;;19.20;99.90;;;;;;5073580;28;20171;-73
2023/08/24 04:25:53;;;;;;;5.80;4.78;;;19.20;99.90;;;;;;5072943;28;20275;-73
2023/08/24 04:28:19;;;;;;;8.45;5.10;;;19.20;99.90;;;;;;5072287;28;20190;-73
2023/08/24 04:30:52;;;;;;;9.05;5.20;;;19.20;99.90;;;;;;5074470;28;20552;-73
2023/08/24 04:33:18;;;;;;;6.07;4.87;;;19.20;99.90;;;;;;5073539;28;20174;-73
2023/08/24 04:35:48;;;;;;;6.50;4.90;;;19.20;99.90;;;;;;5073477;28;20205;-73
2023/08/24 04:38:14;;;;;;;6.17;5.23;;;19.20;99.90;;;;;;5073731;28;20173;-73
2023/08/24 04:40:54;;;;;;;7.50;5.43;;;19.10;99.90;;;;;;5073694;28;20498;-74
2023/08/24 04:43:21;;;;;;;7.38;5.38;;;19.00;99.90;;;;;;5062408;28;20190;-74
2023/08/24 04:45:52;;;;;;;5.90;5.33;;;18.90;99.90;;;;;;5053336;28;20198;-74
2023/08/24 04:48:18;;;;;;;5.90;5.40;;;18.60;99.90;;;;;;5053499;28;20563;-74
2023/08/24 04:50:45;;;;;;;8.43;5.93;;;18.50;99.90;;;;;;5065214;28;20170;-74
2023/08/24 04:53:16;;;;;;;7.87;5.70;;;18.40;99.90;;;;;;5072734;28;20243;-75
2023/08/24 04:55:42;;;;;;;10.40;6.13;;;18.30;99.90;;;;;;5073717;28;20194;-75
2023/08/24 04:58:08;;;;;;;9.93;6.40;;;18.30;99.90;;;;;;5057211;28;20649;-75
2023/08/24 05:00:35;;;;;;;8.93;6.60;;;18.30;99.90;;;;;;5053186;28;20171;-75
2023/08/24 05:03:02;;;;;;;8.10;6.87;;;18.30;99.90;;;;;;5053001;28;20167;-75
2023/08/24 05:05:35;;;;;;;11.03;6.93;;;18.40;99.90;;;;;;5052686;28;20207;-74
2023/08/24 05:08:02;;;;;;;6.97;6.20;;;18.40;99.90;;;;;;5053167;28;20190;-75
2023/08/24 05:10:31;;;;;;;13.80;7.27;;;18.40;99.90;;;;;;5053072;28;20531;-75
2023/08/24 05:12:57;;;;;;;8.17;7.27;;;18.40;99.90;;;;;;5056006;28;20166;-75
2023/08/24 05:15:23;;;;;;;9.10;7.53;;;18.40;99.90;;;;;;5072387;28;20741;-75
2023/08/24 05:17:48;;;;;;;10.80;7.97;;;18.40;99.90;;;;;;5072632;28;20683;-75
2023/08/24 05:20:14;;;;;;;9.60;8.03;;;18.30;99.90;;;;;;5072668;28;20181;-75
2023/08/24 05:22:40;;;;;;;17.57;8.13;;;18.40;99.90;;;;;;5072576;28;20189;-75
2023/08/24 05:25:06;;;;;;;13.03;8.13;;;18.40;99.90;;;;;;5072760;28;20206;-75
2023/08/24 05:27:32;;;;;;;8.40;7.70;;;18.40;99.90;;;;;;5071203;28;20177;-75
2023/08/24 05:29:57;;;;;;;11.43;7.20;;;18.40;99.90;;;;;;5064995;28;20175;-74
2023/08/24 05:32:23;;;;;;;13.37;8.27;;;18.50;99.90;;;;;;5052137;28;20185;-74
2023/08/24 05:34:49;;;;;;;11.73;8.63;;;18.50;99.90;;;;;;5052516;28;20222;-75
2023/08/24 05:37:15;;;;;;;12.47;8.17;;;18.60;99.90;;;;;;5051098;28;20175;-76
2023/08/24 05:39:40;;;;;;;11.37;8.47;;;18.60;99.90;;;;;;5052463;28;20174;-75
2023/08/24 05:42:06;;;;;;;10.37;8.07;;;18.60;99.90;;;;;;5051883;28;20541;-74
2023/08/24 05:44:32;;;;;;;12.85;9.13;;;18.60;99.90;;;;;;5052269;28;20194;-75
2023/08/24 05:46:57;;;;;;;12.13;9.17;;;18.60;99.90;;;;;;5053286;28;20171;-74
2023/08/24 05:49:23;;;;;;;10.30;9.13;;;18.60;99.90;;;;;;5051983;28;20178;-74
2023/08/24 05:51:51;;;;;;;11.70;9.77;;;18.60;99.90;;;;;;5051768;28;20274;-74
2023/08/24 05:54:20;;;;;;;10.07;9.07;;;18.60;99.90;;;;;;5051999;28;20252;-74
2023/08/24 05:56:48;;;;;;;10.88;9.45;;;18.60;99.90;;;;;;5052227;28;20556;-74
2023/08/24 05:59:14;;;;;;;10.67;8.77;;;18.70;99.90;;;;;;5054229;28;20200;-74
2023/08/24 06:01:41;;;;;;;16.67;9.40;;;18.70;99.90;;;;;;5072964;28;20263;-74
2023/08/24 06:04:07;;;;;;;9.80;8.77;;;18.80;99.90;;;;;;5068691;28;20746;-74
2023/08/24 06:06:33;;;;;;;14.13;9.33;;;18.90;99.90;;;;;;5071944;28;20170;-73
2023/08/24 06:08:59;;;;;;;12.52;8.82;;;18.90;99.90;;;;;;5070436;28;20532;-74
2023/08/24 06:11:24;;;;;;;11.33;9.20;;;19.00;99.90;;;;;;5071547;28;20176;-73
2023/08/24 06:13:53;;;;;;;9.00;7.93;;;19.00;99.90;;;;;;5071473;28;20764;-74
2023/08/24 06:16:19;;;;;;;10.10;8.87;;;19.10;99.90;;;;;;5071629;28;20176;-73
2023/08/24 06:18:44;;;;;;;9.30;8.27;;;19.10;99.90;;;;;;5071554;28;20256;-74
2023/08/24 06:21:10;;;;;;;9.63;7.93;;;19.10;99.90;;;;;;5071378;28;20224;-74
2023/08/24 06:23:36;;;;;;;8.60;7.80;;;19.10;99.90;;;;;;5052864;28;20194;-75
2023/08/24 06:26:01;;;;;;;8.77;7.87;;;19.20;99.90;;;;;;5051554;28;20206;-73
2023/08/24 06:28:27;;;;;;;8.23;7.25;;;19.50;99.90;;;;;;5051394;28;20253;-74
2023/08/24 06:30:55;;;;;;;7.90;6.50;;;19.90;99.90;;;;;;5051542;28;20274;-74
2023/08/24 06:33:21;;;;;;;7.03;6.43;;;20.40;99.90;;;;;;5050837;28;20203;-73
2023/08/24 06:35:47;;;;;;;7.03;5.65;;;20.80;99.90;;;;;;5051218;28;20214;-75
2023/08/24 06:38:13;;;;;;;6.43;5.55;;;21.20;99.90;;;;;;5051312;28;20543;-75
2023/08/24 06:40:39;;;;;;;6.82;5.30;;;21.60;99.90;;;;;;5051353;28;20609;-74
2023/08/24 06:43:05;;;;;;;5.82;5.32;;;22.00;99.90;;;;;;5050072;28;20205;-75
2023/08/24 06:45:31;;;;;;;5.90;4.82;;;22.30;99.90;;;;;;5052913;28;20205;-73
2023/08/24 06:47:56;;;;;;;8.38;5.65;;;22.60;99.90;;;;;;5071265;28;20162;-74
2023/08/24 06:50:22;;;;;;;8.02;5.15;;;22.90;99.90;;;;;;5071049;28;20181;-74
2023/08/24 06:52:48;;;;;;;5.90;5.40;;;23.30;99.90;;;;;;5069632;28;20639;-74
2023/08/24 06:55:13;;;;;;;6.53;5.50;;;23.60;99.90;;;;;;5069618;28;20608;-74
2023/08/24 06:57:39;;;;;;;11.50;6.90;;;23.70;99.90;;;;;;5054111;28;20244;-73
2023/08/24 07:00:07;;;;;;;9.88;7.72;;;23.80;99.90;;;;;;5051048;28;20175;-74
2023/08/24 07:02:33;;;;;;;9.65;8.13;;;23.80;99.90;;;;;;5050784;28;20170;-74
2023/08/24 07:04:59;;;;;;;9.73;7.07;;;23.80;99.90;;;;;;5051292;28;20272;-74
2023/08/24 07:07:25;;;;;;;8.20;7.22;;;24.00;99.90;;;;;;5050857;28;20225;-74
2023/08/24 07:09:51;;;;;;;9.02;7.53;;;24.10;99.90;;;;;;5051027;28;20173;-74
2023/08/24 07:12:16;;;;;;;7.68;6.50;;;24.40;99.90;;;;;;5051778;28;20544;-73
2023/08/24 07:14:42;;;;;;;10.43;5.68;;;24.80;99.90;;;;;;5050978;28;20608;-74
2023/08/24 07:17:07;;;;;;;5.80;5.15;;;25.10;99.90;;;;;;5050710;28;20551;-74
2023/08/24 07:19:33;;;;;;;5.40;4.90;;;25.40;99.90;;;;;;5050899;28;20254;-74
2023/08/24 07:21:59;;;;;;;7.47;5.03;;;25.70;99.90;;;;;;5050454;28;20258;-74
2023/08/24 07:24:29;;;;;;;5.45;4.80;;;26.00;99.90;;;;;;5063968;28;20233;-73
2023/08/24 07:26:55;;;;;;;7.65;4.22;;;26.30;99.90;;;;;;5061962;28;20178;-73
2023/08/24 07:29:21;;;;;;;6.22;3.78;;;26.60;99.90;;;;;;5069458;28;20170;-73
2023/08/24 07:31:47;;;;;;;5.07;4.60;;;27.10;99.90;;;;;;5068147;28;20628;-73
2023/08/24 07:34:12;;;;;;;6.15;3.40;;;27.60;99.90;;;;;;5070466;28;20243;-74
2023/08/24 07:36:38;;;;;;;6.85;4.35;;;28.00;99.90;;;;;;5068672;28;20185;-73
2023/08/24 07:39:04;;;;;;;6.85;5.78;;;28.30;99.90;;;;;;5070571;28;20174;-73
2023/08/24 07:41:30;;;;;;;4.20;3.80;;;28.30;99.90;;;;;;5070368;28;20186;-74
2023/08/24 07:43:55;;;;;;;7.80;5.38;;;28.40;99.90;;;;;;5069341;28;20586;-72
2023/08/24 07:46:21;;;;;;;6.20;4.25;;;28.50;99.90;;;;;;5070581;28;20173;-73
2023/08/24 07:48:47;;;;;;;5.72;5.32;;;28.60;99.90;;;;;;5070852;28;20642;-74
2023/08/24 07:51:12;;;;;;;4.50;4.10;;;28.90;99.90;;;;;;5069046;28;20595;-73
2023/08/24 07:53:38;;;;;;;4.80;4.13;;;29.00;99.90;;;;;;5069992;28;20588;-73
2023/08/24 07:56:04;;;;;;;5.95;4.43;;;29.30;99.90;;;;;;5072368;28;20266;-72
2023/08/24 07:58:31;;;;;;;4.78;3.92;;;29.40;99.90;;;;;;5074588;28;20224;-73
2023/08/24 08:00:57;;;;;;;3.90;3.30;;;29.50;99.90;;;;;;5074230;28;20175;-73
2023/08/24 08:03:22;;;;;;;5.55;4.65;;;29.50;99.90;;;;;;5073678;28;20186;-74
2023/08/24 08:05:48;;;;;;;5.25;4.75;;;29.10;99.90;;;;;;5074142;28;20208;-73
2023/08/24 08:08:14;;;;;;;6.70;5.20;;;28.80;99.90;;;;;;5074119;28;20253;-73
2023/08/24 08:10:41;;;;;;;4.18;3.88;;;28.50;99.90;;;;;;5074140;28;20190;-73
2023/08/24 08:13:08;;;;;;;4.13;3.63;;;28.20;99.90;;;;;;5072348;28;20202;-73
2023/08/24 08:15:33;;;;;;;3.55;3.17;;;28.30;99.90;;;;;;5073836;28;20197;-74
2023/08/24 08:17:59;;;;;;;4.93;3.45;;;28.60;99.90;;;;;;5074009;28;20260;-72
2023/08/24 08:20:25;;;;;;;4.50;3.53;;;28.80;99.90;;;;;;5073897;28;20182;-74
2023/08/24 08:22:50;;;;;;;4.93;4.50;;;28.90;99.90;;;;;;5073651;28;20520;-73
2023/08/24 08:25:21;;;;;;;4.97;4.18;;;29.00;99.90;;;;;;5073344;28;20628;-73
2023/08/24 08:27:48;;;;;;;4.65;3.83;;;29.10;99.90;;;;;;5072170;28;20174;-74
2023/08/24 08:30:14;;;;;;;7.60;7.10;;;29.20;99.90;;;;;;5073646;28;20170;-73
2023/08/24 08:32:40;;;;;;;11.57;10.80;;;29.50;99.90;;;;;;5073544;28;20163;-73
2023/08/24 08:35:06;;;;;;;6.00;4.70;;;29.80;99.90;;;;;;5073852;28;20186;-73
2023/08/24 08:37:32;;;;;;;6.05;3.67;;;30.00;99.90;;;;;;5073639;28;20174;-73
2023/08/24 08:39:58;;;;;;;3.95;3.53;;;30.20;99.90;;;;;;5073512;28;20251;-72
2023/08/24 08:42:23;;;;;;;7.82;3.45;;;30.30;99.90;;;;;;5073314;28;20190;-73
2023/08/24 08:44:49;;;;;;;3.45;3.15;;;30.10;99.90;;;;;;5073284;28;20698;-74
2023/08/24 08:47:16;;;;;;;3.67;3.17;;;30.20;99.90;;;;;;5072332;28;20538;-73
2023/08/24 08:49:47;;;;;;;5.57;5.10;;;30.40;99.90;;;;;;5073338;28;20173;-73
2023/08/24 08:52:13;;;;;;;5.65;5.15;;;30.60;99.90;;;;;;5061444;28;20167;-74
2023/08/24 08:54:38;;;;;;;8.20;4.43;;;30.70;99.90;;;;;;5054381;28;20563;-73
2023/08/24 08:57:04;;;;;;;4.85;3.70;;;30.70;99.90;;;;;;5071359;28;20190;-73
2023/08/24 08:59:30;;;;;;;4.50;3.58;;;30.90;99.90;;;;;;5073163;28;20257;-73
2023/08/24 09:02:00;;;;;;;3.75;3.20;;;31.30;99.90;;;;;;5071105;28;20293;-74
2023/08/24 09:04:29;;;;;;;5.43;5.00;;;31.60;99.90;;;;;;5056108;28;20688;-73
2023/08/24 09:06:56;;;;;;;5.05;3.20;;;31.70;99.90;;;;;;5052455;28;20201;-72
2023/08/24 09:09:22;;;;;;;2.95;2.75;;;31.70;99.90;;;;;;5052675;28;20167;-72
2023/08/24 09:11:49;;;;;;;5.32;3.28;;;31.80;99.90;;;;;;5052608;28;20654;-73
2023/08/24 09:14:14;;;;;;;5.68;3.08;;;31.90;99.90;;;;;;5052790;28;20201;-71
2023/08/24 09:16:42;;;;;;;4.32;3.10;;;31.90;99.90;;;;;;5053041;28;20174;-70
2023/08/24 09:19:11;;;;;;;3.65;2.97;;;31.70;99.90;;;;;;5052764;28;20536;-72
2023/08/24 09:21:37;;;;;;;4.57;3.70;;;31.70;99.90;;;;;;5052623;28;20579;-72
2023/08/24 09:24:03;;;;;;;7.32;4.50;;;31.80;99.90;;;;;;5052424;28;20328;-72
2023/08/24 09:26:34;;;;;;;4.20;3.80;;;31.80;99.90;;;;;;5052778;28;20261;-72
2023/08/24 09:29:10;;;;;;;4.47;4.00;;;31.60;99.90;;;;;;5052696;28;20175;-72
2023/08/24 09:31:39;;;;;;;3.53;3.28;;;31.50;99.90;;;;;;5056840;28;20175;-72
2023/08/24 09:34:06;;;;;;;3.85;3.20;;;31.30;99.90;;;;;;5052355;28;20191;-73
2023/08/24 09:36:36;;;;;;;3.30;3.00;;;31.10;99.90;;;;;;5052520;28;20171;-73
2023/08/24 09:39:06;;;;;;;3.63;3.28;;;31.00;99.90;;;;;;5052496;28;20163;-73
2023/08/24 09:41:39;;;;;;;4.95;2.67;;;30.90;99.90;;;;;;5052119;28;20204;-71
2023/08/24 09:44:05;;;;;;;6.18;3.03;;;30.60;99.90;;;;;;5051974;28;20231;-73
2023/08/24 09:46:31;;;;;;;4.35;2.65;;;30.50;99.90;;;;;;5052281;28;20171;-73
2023/08/24 09:48:59;;;;;;;3.05;2.80;;;30.60;99.90;;;;;;5052267;28;20634;-74
2023/08/24 09:51:26;;;;;;;3.65;2.90;;;30.50;99.90;;;;;;5057031;28;20174;-72
2023/08/24 09:54:00;;;;;;;4.63;3.00;;;30.40;99.90;;;;;;5071642;28;20688;-73
2023/08/24 09:56:28;;;;;;;3.13;2.75;;;30.40;99.90;;;;;;5071978;28;20227;-74
2023/08/24 09:58:55;;;;;;;3.75;2.97;;;30.40;99.90;;;;;;5071189;28;20609;-73
2023/08/24 10:01:23;;;;;;;5.05;3.00;;;30.40;99.90;;;;;;5071678;28;20170;-73
2023/08/24 10:03:55;;;;;;;4.13;3.13;;;30.40;99.90;;;;;;5069901;28;20239;-72
2023/08/24 10:06:23;;;;;;;3.25;2.83;;;30.40;99.90;;;;;;5071902;28;20178;-73
2023/08/24 10:08:54;;;;;;;5.38;3.22;;;30.40;99.90;;;;;;5058744;28;20174;-73
2023/08/24 10:11:25;;;;;;;4.53;3.63;;;30.50;99.90;;;;;;5051594;28;20269;-73
2023/08/24 10:14:41;;;;;;;3.17;2.92;;;30.50;99.90;;;;;;5051500;28;20644;-73
2023/08/24 10:17:10;;;;;;;4.90;3.15;;;30.50;99.90;;;;;;5025268;28;20224;-74
2023/08/24 10:19:36;;;;;;;4.93;3.63;;;30.60;99.90;;;;;;5051663;28;20171;-74
2023/08/24 10:22:02;;;;;;;4.10;3.13;;;30.60;99.90;;;;;;5051125;28;20205;-73
2023/08/24 10:24:29;;;;;;;4.82;4.00;;;30.60;99.90;;;;;;5051331;28;20209;-71
2023/08/24 10:26:56;;;;;;;3.97;3.13;;;30.40;99.90;;;;;;5066921;28;20255;-74
2023/08/24 10:29:23;;;;;;;4.28;3.25;;;30.30;99.90;;;;;;5071288;28;20767;-72
2023/08/24 10:31:49;;;;;;;4.70;3.33;;;30.20;99.90;;;;;;5070849;28;20202;-70
2023/08/24 10:34:16;;;;;;;3.10;2.83;;;30.00;99.90;;;;;;5069280;28;20663;-73
2023/08/24 10:36:41;;;;;;;3.30;2.97;;;29.80;99.90;;;;;;5071644;28;20265;-74
2023/08/24 10:39:07;;;;;;;5.63;3.20;;;29.70;99.90;;;;;;5071265;28;20600;-75
2023/08/24 10:41:52;;;;;;;4.60;3.00;;;29.70;99.90;;;;;;5070965;28;20186;-73
2023/08/24 10:44:24;;;;;;;3.97;3.25;;;29.70;99.90;;;;;;5071057;28;20202;-74
2023/08/24 10:47:18;;;;;;;4.25;3.45;;;29.60;99.90;;;;;;5071291;28;20202;-73
2023/08/24 10:49:56;;;;;;;5.75;3.38;;;29.60;99.90;;;;;;5069097;28;20178;-73
2023/08/24 10:52:24;;;;;;;3.70;2.92;;;29.70;99.90;;;;;;5050852;28;20166;-74
2023/08/24 10:54:54;;;;;;;5.10;3.55;;;29.70;99.90;;;;;;5051578;28;20190;-74
2023/08/24 10:57:20;;;;;;;3.08;2.75;;;29.70;99.90;;;;;;5051257;28;20678;-73
2023/08/24 11:00:05;;;;;;;3.10;2.80;;;29.90;99.90;;;;;;5051117;28;20637;-73
2023/08/24 11:02:44;;;;;;;6.93;3.60;;;30.10;99.90;;;;;;5050800;28;20166;-74
2023/08/24 11:05:21;;;;;;;3.83;3.53;;;30.20;99.90;;;;;;5050756;28;20229;-74
2023/08/24 11:07:50;;;;;;;3.88;3.50;;;30.30;99.90;;;;;;5060515;28;20229;-74
2023/08/24 11:10:17;;;;;;;4.28;3.50;;;30.50;99.90;;;;;;5070958;28;20256;-73
2023/08/24 11:13:04;;;;;;;4.60;4.20;;;30.60;99.90;;;;;;5070833;28;20177;-73
2023/08/24 11:15:44;;;;;;;4.50;4.07;;;30.60;99.90;;;;;;5070913;28;20189;-70
2023/08/24 11:18:13;;;;;;;5.78;3.63;;;30.40;99.90;;;;;;5069530;28;20169;-72
2023/08/24 11:20:43;;;;;;;7.68;3.80;;;30.20;99.90;;;;;;5061589;28;20182;-72
2023/08/24 11:23:09;;;;;;;4.28;3.88;;;30.10;99.90;;;;;;5050482;28;20175;-73
2023/08/24 11:25:38;;;;;;;7.70;4.38;;;29.90;99.90;;;;;;5050704;28;20233;-72
2023/08/24 11:28:04;;;;;;;8.38;3.53;;;29.80;99.90;;;;;;5051046;28;20166;-72
2023/08/24 11:30:32;;;;;;;4.93;3.83;;;29.70;99.90;;;;;;5055854;28;20179;-72
2023/08/24 11:32:58;;;;;;;5.28;3.40;;;29.70;99.90;;;;;;5054619;28;20166;-72
2023/08/24 11:35:23;;;;;;;6.20;4.05;;;29.70;99.90;;;;;;5054564;28;20198;-72
2023/08/24 11:37:56;;;;;;;3.58;3.28;;;29.70;99.90;;;;;;5054700;28;20163;-73
2023/08/24 11:40:26;;;;;;;5.45;3.40;;;29.70;99.90;;;;;;5053078;28;20205;-73
2023/08/24 11:42:55;;;;;;;7.68;3.15;;;29.70;99.90;;;;;;5054310;28;20675;-72
2023/08/24 11:45:22;;;;;;;6.38;3.20;;;29.80;99.90;;;;;;5054237;28;20245;-72
2023/08/24 11:47:50;;;;;;;4.68;4.25;;;29.90;99.90;;;;;;5054570;28;20171;-73
2023/08/24 11:50:17;;;;;;;3.78;3.28;;;30.00;99.90;;;;;;5054325;28;20657;-72
2023/08/24 11:52:43;;;;;;;6.75;3.40;;;30.20;99.90;;;;;;5054233;28;20277;-72
2023/08/24 11:55:09;;;;;;;4.43;2.72;;;30.30;99.90;;;;;;5066559;28;20224;-72
2023/08/24 11:57:36;;;;;;;4.13;3.75;;;30.40;99.90;;;;;;5074469;28;20178;-73
2023/08/24 12:00:03;;;;;;;4.72;3.33;;;30.50;99.90;;;;;;5074140;28;20229;-73
2023/08/24 12:02:29;;;;;;;7.25;3.00;;;30.50;99.90;;;;;;5072046;28;20671;-73
2023/08/24 12:04:55;;;;;;;5.50;3.38;;;30.40;99.90;;;;;;5074162;28;20527;-73
2023/08/24 12:07:21;;;;;;;5.93;3.78;;;30.40;99.90;;;;;;5074111;28;20196;-74
2023/08/24 12:09:47;;;;;;;6.25;5.85;;;30.20;99.90;;;;;;5074136;28;20675;-73
2023/08/24 12:12:16;;;;;;;7.85;5.50;;;30.00;99.90;;;;;;5073549;28;20180;-73
2023/08/24 12:14:47;;;;;;;5.95;3.00;;;29.70;99.90;;;;;;5074018;28;20224;-73
2023/08/24 12:17:13;;;;;;;8.10;5.95;;;29.30;99.90;;;;;;5074052;28;20202;-73
2023/08/24 12:20:05;;;;;;;4.03;3.60;;;28.90;99.90;;;;;;5070503;28;20590;-72
2023/08/24 12:22:31;;;;;;;4.88;3.17;;;28.40;99.90;;;;;;5067493;28;20193;-72
2023/08/24 12:24:57;;;;;;;4.40;3.40;;;27.70;99.90;;;;;;5073950;28;20202;-74
2023/08/24 12:27:25;;;;;;;8.85;3.45;;;27.10;99.90;;;;;;5069902;28;20175;-73
2023/08/24 12:29:52;;;;;;;4.72;4.13;;;26.40;99.90;;;;;;5054203;28;20173;-74
2023/08/24 12:32:20;;;;;;;5.07;3.63;;;25.70;99.90;;;;;;5053479;28;20866;-73
2023/08/24 12:34:46;;;;;;;7.53;4.07;;;25.20;99.90;;;;;;5067380;28;20206;-74
2023/08/24 12:37:12;;;;;;;5.10;4.38;;;24.70;99.90;;;;;;5072330;28;20174;-73
2023/08/24 12:39:39;;;;;;;6.00;4.28;;;24.40;99.90;;;;;;5072984;28;20177;-74
2023/08/24 12:42:05;;;;;;;4.45;4.00;;;24.20;99.90;;;;;;5072534;28;20190;-72
2023/08/24 12:44:30;;;;;;;8.73;4.53;;;24.00;99.90;;;;;;5073415;28;20694;-73
2023/08/24 12:46:56;;;;;;;9.52;4.13;;;23.80;99.90;;;;;;5071633;28;20220;-73